sensor_id;sensor_type;location;lat;lon;timestamp;P1;durP1;ratioP1;P2;durP2;ratioP2
52972;SDS011;38837;48.916;2.336;2024-01-25T00:00:40;6.28;;;2.35;;
52972;SDS011;38837;48.916;2.336;2024-01-25T00:02:42;7.97;;;2.15;;
52972;SDS011;38837;48.916;2.336;2024-01-25T00:04:44;7.78;;;2.67;;
52972;SDS011;38837;48.916;2.336;2024-01-25T00:06:46;4.95;;;2.20;;
52972;SDS011;38837;48.916;2.336;2024-01-25T00:08:49;7.30;;;2.72;;
52972;SDS011;38837;48.916;2.336;2024-01-25T00:10:51;8.85;;;2.65;;
52972;SDS011;38837;48.916;2.336;2024-01-25T00:12:53;6.32;;;2.40;;
52972;SDS011;38837;48.916;2.336;2024-01-25T00:14:55;8.25;;;2.50;;
52972;SDS011;38837;48.916;2.336;2024-01-25T00:16:57;8.13;;;2.60;;
52972;SDS011;38837;48.916;2.336;2024-01-25T00:18:59;5.80;;;2.65;;
52972;SDS011;38837;48.916;2.336;2024-01-25T00:21:01;9.85;;;2.90;;
52972;SDS011;38837;48.916;2.336;2024-01-25T00:23:03;5.68;;;2.40;;
52972;SDS011;38837;48.916;2.336;2024-01-25T00:25:05;8.50;;;2.72;;
52972;SDS011;38837;48.916;2.336;2024-01-25T00:27:08;6.57;;;2.28;;
52972;SDS011;38837;48.916;2.336;2024-01-25T00:29:10;8.38;;;2.80;;
52972;SDS011;38837;48.916;2.336;2024-01-25T00:31:12;7.60;;;2.53;;
52972;SDS011;38837;48.916;2.336;2024-01-25T00:33:15;9.25;;;2.70;;
52972;SDS011;38837;48.916;2.336;2024-01-25T00:35:17;6.40;;;2.55;;
52972;SDS011;38837;48.916;2.336;2024-01-25T00:37:19;7.55;;;3.75;;
52972;SDS011;38837;48.916;2.336;2024-01-25T00:39:22;9.50;;;3.10;;
52972;SDS011;38837;48.916;2.336;2024-01-25T00:41:24;7.07;;;2.65;;
52972;SDS011;38837;48.916;2.336;2024-01-25T00:43:26;7.32;;;2.67;;
52972;SDS011;38837;48.916;2.336;2024-01-25T00:45:28;8.20;;;3.05;;
52972;SDS011;38837;48.916;2.336;2024-01-25T00:47:31;6.53;;;2.60;;
52972;SDS011;38837;48.916;2.336;2024-01-25T00:49:33;7.22;;;2.65;;
52972;SDS011;38837;48.916;2.336;2024-01-25T00:51:38;6.60;;;2.90;;
52972;SDS011;38837;48.916;2.336;2024-01-25T00:53:49;9.93;;;2.97;;
52972;SDS011;38837;48.916;2.336;2024-01-25T00:55:51;7.38;;;2.50;;
52972;SDS011;38837;48.916;2.336;2024-01-25T00:57:53;5.85;;;2.47;;
52972;SDS011;38837;48.916;2.336;2024-01-25T00:59:56;8.05;;;2.80;;
52972;SDS011;38837;48.916;2.336;2024-01-25T01:01:58;7.18;;;2.70;;
52972;SDS011;38837;48.916;2.336;2024-01-25T01:04:01;11.02;;;2.80;;
52972;SDS011;38837;48.916;2.336;2024-01-25T01:06:03;8.88;;;2.42;;
52972;SDS011;38837;48.916;2.336;2024-01-25T01:08:06;10.48;;;2.63;;
52972;SDS011;38837;48.916;2.336;2024-01-25T01:10:08;9.27;;;2.30;;
52972;SDS011;38837;48.916;2.336;2024-01-25T01:12:11;7.30;;;2.75;;
52972;SDS011;38837;48.916;2.336;2024-01-25T01:14:13;8.13;;;2.72;;
52972;SDS011;38837;48.916;2.336;2024-01-25T01:16:15;9.48;;;2.95;;
52972;SDS011;38837;48.916;2.336;2024-01-25T01:18:21;6.68;;;2.58;;
52972;SDS011;38837;48.916;2.336;2024-01-25T01:20:23;5.93;;;2.53;;
52972;SDS011;38837;48.916;2.336;2024-01-25T01:22:26;9.60;;;3.25;;
52972;SDS011;38837;48.916;2.336;2024-01-25T01:24:28;8.27;;;2.28;;
52972;SDS011;38837;48.916;2.336;2024-01-25T01:26:30;7.30;;;2.75;;
52972;SDS011;38837;48.916;2.336;2024-01-25T01:28:37;8.10;;;2.63;;
52972;SDS011;38837;48.916;2.336;2024-01-25T01:30:39;8.05;;;2.72;;
52972;SDS011;38837;48.916;2.336;2024-01-25T01:32:43;6.90;;;2.35;;
52972;SDS011;38837;48.916;2.336;2024-01-25T01:34:46;8.98;;;2.85;;
52972;SDS011;38837;48.916;2.336;2024-01-25T01:36:48;7.15;;;2.42;;
52972;SDS011;38837;48.916;2.336;2024-01-25T01:38:50;7.05;;;2.58;;
52972;SDS011;38837;48.916;2.336;2024-01-25T01:40:52;7.90;;;2.67;;
52972;SDS011;38837;48.916;2.336;2024-01-25T01:43:01;7.30;;;2.58;;
52972;SDS011;38837;48.916;2.336;2024-01-25T01:45:03;6.35;;;2.40;;
52972;SDS011;38837;48.916;2.336;2024-01-25T01:47:06;7.47;;;2.60;;
52972;SDS011;38837;48.916;2.336;2024-01-25T01:49:11;7.53;;;2.50;;
52972;SDS011;38837;48.916;2.336;2024-01-25T01:51:18;5.45;;;2.70;;
52972;SDS011;38837;48.916;2.336;2024-01-25T01:53:20;5.65;;;2.40;;
52972;SDS011;38837;48.916;2.336;2024-01-25T01:55:22;10.18;;;2.95;;
52972;SDS011;38837;48.916;2.336;2024-01-25T01:57:25;6.55;;;2.53;;
52972;SDS011;38837;48.916;2.336;2024-01-25T01:59:29;7.00;;;2.53;;
52972;SDS011;38837;48.916;2.336;2024-01-25T02:01:32;5.95;;;2.28;;
52972;SDS011;38837;48.916;2.336;2024-01-25T02:03:34;6.28;;;2.30;;
52972;SDS011;38837;48.916;2.336;2024-01-25T02:05:36;9.32;;;2.53;;
52972;SDS011;38837;48.916;2.336;2024-01-25T02:07:38;8.05;;;2.42;;
52972;SDS011;38837;48.916;2.336;2024-01-25T02:09:42;9.32;;;2.53;;
52972;SDS011;38837;48.916;2.336;2024-01-25T02:11:43;9.13;;;3.05;;
52972;SDS011;38837;48.916;2.336;2024-01-25T02:13:45;6.80;;;2.50;;
52972;SDS011;38837;48.916;2.336;2024-01-25T02:15:48;5.57;;;2.30;;
52972;SDS011;38837;48.916;2.336;2024-01-25T02:17:51;9.27;;;2.88;;
52972;SDS011;38837;48.916;2.336;2024-01-25T02:19:53;8.80;;;2.55;;
52972;SDS011;38837;48.916;2.336;2024-01-25T02:21:55;10.13;;;2.25;;
52972;SDS011;38837;48.916;2.336;2024-01-25T02:24:00;6.75;;;2.60;;
52972;SDS011;38837;48.916;2.336;2024-01-25T02:26:02;5.47;;;2.13;;
52972;SDS011;38837;48.916;2.336;2024-01-25T02:28:04;7.50;;;2.55;;
52972;SDS011;38837;48.916;2.336;2024-01-25T02:30:07;7.85;;;2.08;;
52972;SDS011;38837;48.916;2.336;2024-01-25T02:32:09;7.05;;;2.58;;
52972;SDS011;38837;48.916;2.336;2024-01-25T02:34:11;9.73;;;3.00;;
52972;SDS011;38837;48.916;2.336;2024-01-25T02:36:13;7.07;;;2.38;;
52972;SDS011;38837;48.916;2.336;2024-01-25T02:38:15;10.00;;;2.75;;
52972;SDS011;38837;48.916;2.336;2024-01-25T02:40:17;6.40;;;2.42;;
52972;SDS011;38837;48.916;2.336;2024-01-25T02:42:19;5.32;;;2.33;;
52972;SDS011;38837;48.916;2.336;2024-01-25T02:44:21;7.30;;;2.75;;
52972;SDS011;38837;48.916;2.336;2024-01-25T02:46:23;7.65;;;2.55;;
52972;SDS011;38837;48.916;2.336;2024-01-25T02:48:25;7.90;;;3.13;;
52972;SDS011;38837;48.916;2.336;2024-01-25T02:50:27;9.07;;;2.55;;
52972;SDS011;38837;48.916;2.336;2024-01-25T02:52:30;5.63;;;2.42;;
52972;SDS011;38837;48.916;2.336;2024-01-25T02:54:34;5.03;;;2.15;;
52972;SDS011;38837;48.916;2.336;2024-01-25T02:56:38;6.65;;;2.50;;
52972;SDS011;38837;48.916;2.336;2024-01-25T02:58:40;8.15;;;2.83;;
52972;SDS011;38837;48.916;2.336;2024-01-25T03:00:41;7.72;;;2.58;;
52972;SDS011;38837;48.916;2.336;2024-01-25T03:02:44;10.25;;;3.05;;
52972;SDS011;38837;48.916;2.336;2024-01-25T03:04:46;5.00;;;2.30;;
52972;SDS011;38837;48.916;2.336;2024-01-25T03:06:48;7.25;;;2.42;;
52972;SDS011;38837;48.916;2.336;2024-01-25T03:08:51;6.70;;;2.53;;
52972;SDS011;38837;48.916;2.336;2024-01-25T03:10:53;6.68;;;2.38;;
52972;SDS011;38837;48.916;2.336;2024-01-25T03:12:56;8.75;;;2.60;;
52972;SDS011;38837;48.916;2.336;2024-01-25T03:14:58;8.32;;;2.63;;
52972;SDS011;38837;48.916;2.336;2024-01-25T03:17:00;6.80;;;3.05;;
52972;SDS011;38837;48.916;2.336;2024-01-25T03:19:02;6.47;;;2.45;;
52972;SDS011;38837;48.916;2.336;2024-01-25T03:21:04;6.53;;;2.45;;
52972;SDS011;38837;48.916;2.336;2024-01-25T03:23:06;8.45;;;3.17;;
52972;SDS011;38837;48.916;2.336;2024-01-25T03:25:09;11.32;;;2.72;;
52972;SDS011;38837;48.916;2.336;2024-01-25T03:27:12;5.40;;;2.03;;
52972;SDS011;38837;48.916;2.336;2024-01-25T03:29:15;6.57;;;2.47;;
52972;SDS011;38837;48.916;2.336;2024-01-25T03:31:17;6.13;;;2.47;;
52972;SDS011;38837;48.916;2.336;2024-01-25T03:33:19;8.20;;;2.88;;
52972;SDS011;38837;48.916;2.336;2024-01-25T03:35:21;6.25;;;2.20;;
52972;SDS011;38837;48.916;2.336;2024-01-25T03:37:24;10.07;;;3.30;;
52972;SDS011;38837;48.916;2.336;2024-01-25T03:39:25;7.15;;;2.55;;
52972;SDS011;38837;48.916;2.336;2024-01-25T03:41:28;8.38;;;2.65;;
52972;SDS011;38837;48.916;2.336;2024-01-25T03:43:30;10.82;;;2.75;;
52972;SDS011;38837;48.916;2.336;2024-01-25T03:45:43;5.25;;;2.15;;
52972;SDS011;38837;48.916;2.336;2024-01-25T03:47:45;7.18;;;2.72;;
52972;SDS011;38837;48.916;2.336;2024-01-25T03:49:47;7.40;;;2.67;;
52972;SDS011;38837;48.916;2.336;2024-01-25T03:51:49;5.55;;;2.25;;
52972;SDS011;38837;48.916;2.336;2024-01-25T03:53:51;5.70;;;2.20;;
52972;SDS011;38837;48.916;2.336;2024-01-25T03:55:54;6.50;;;2.60;;
52972;SDS011;38837;48.916;2.336;2024-01-25T03:57:56;6.05;;;2.50;;
52972;SDS011;38837;48.916;2.336;2024-01-25T03:59:58;6.68;;;2.83;;
52972;SDS011;38837;48.916;2.336;2024-01-25T04:02:00;6.47;;;2.38;;
52972;SDS011;38837;48.916;2.336;2024-01-25T04:04:02;6.78;;;2.33;;
52972;SDS011;38837;48.916;2.336;2024-01-25T04:06:04;6.13;;;2.03;;
52972;SDS011;38837;48.916;2.336;2024-01-25T04:08:06;6.82;;;2.03;;
52972;SDS011;38837;48.916;2.336;2024-01-25T04:10:08;5.25;;;2.22;;
52972;SDS011;38837;48.916;2.336;2024-01-25T04:12:11;4.72;;;1.98;;
52972;SDS011;38837;48.916;2.336;2024-01-25T04:14:13;6.40;;;2.60;;
52972;SDS011;38837;48.916;2.336;2024-01-25T04:16:15;5.35;;;2.55;;
52972;SDS011;38837;48.916;2.336;2024-01-25T04:18:17;6.50;;;2.25;;
52972;SDS011;38837;48.916;2.336;2024-01-25T04:20:19;6.63;;;2.30;;
52972;SDS011;38837;48.916;2.336;2024-01-25T04:22:21;7.47;;;2.33;;
52972;SDS011;38837;48.916;2.336;2024-01-25T04:24:23;6.32;;;2.35;;
52972;SDS011;38837;48.916;2.336;2024-01-25T04:26:25;3.92;;;2.00;;
52972;SDS011;38837;48.916;2.336;2024-01-25T04:28:27;6.43;;;1.90;;
52972;SDS011;38837;48.916;2.336;2024-01-25T04:30:29;6.97;;;1.83;;
52972;SDS011;38837;48.916;2.336;2024-01-25T04:32:33;6.35;;;2.45;;
52972;SDS011;38837;48.916;2.336;2024-01-25T04:34:36;6.03;;;2.42;;
52972;SDS011;38837;48.916;2.336;2024-01-25T04:36:41;7.00;;;2.20;;
52972;SDS011;38837;48.916;2.336;2024-01-25T04:38:44;5.68;;;2.45;;
52972;SDS011;38837;48.916;2.336;2024-01-25T04:40:46;6.10;;;2.05;;
52972;SDS011;38837;48.916;2.336;2024-01-25T04:42:48;5.05;;;2.08;;
52972;SDS011;38837;48.916;2.336;2024-01-25T04:44:50;5.78;;;2.20;;
52972;SDS011;38837;48.916;2.336;2024-01-25T04:46:52;4.38;;;1.80;;
52972;SDS011;38837;48.916;2.336;2024-01-25T04:48:55;9.10;;;2.45;;
52972;SDS011;38837;48.916;2.336;2024-01-25T04:50:57;9.10;;;2.50;;
52972;SDS011;38837;48.916;2.336;2024-01-25T04:53:03;7.90;;;2.75;;
52972;SDS011;38837;48.916;2.336;2024-01-25T04:55:05;7.00;;;2.20;;
52972;SDS011;38837;48.916;2.336;2024-01-25T04:57:07;7.93;;;2.30;;
52972;SDS011;38837;48.916;2.336;2024-01-25T04:59:09;5.32;;;2.17;;
52972;SDS011;38837;48.916;2.336;2024-01-25T05:01:12;3.90;;;1.90;;
52972;SDS011;38837;48.916;2.336;2024-01-25T05:03:14;5.13;;;2.00;;
52972;SDS011;38837;48.916;2.336;2024-01-25T05:05:16;5.70;;;2.38;;
52972;SDS011;38837;48.916;2.336;2024-01-25T05:07:18;6.40;;;1.95;;
52972;SDS011;38837;48.916;2.336;2024-01-25T05:09:29;9.07;;;2.53;;
52972;SDS011;38837;48.916;2.336;2024-01-25T05:11:32;5.28;;;1.80;;
52972;SDS011;38837;48.916;2.336;2024-01-25T05:13:34;5.90;;;2.35;;
52972;SDS011;38837;48.916;2.336;2024-01-25T05:15:35;5.28;;;2.03;;
52972;SDS011;38837;48.916;2.336;2024-01-25T05:17:38;7.32;;;2.47;;
52972;SDS011;38837;48.916;2.336;2024-01-25T05:19:40;4.95;;;2.22;;
52972;SDS011;38837;48.916;2.336;2024-01-25T05:21:42;5.20;;;2.08;;
52972;SDS011;38837;48.916;2.336;2024-01-25T05:23:44;5.13;;;1.85;;
52972;SDS011;38837;48.916;2.336;2024-01-25T05:25:48;4.47;;;2.15;;
52972;SDS011;38837;48.916;2.336;2024-01-25T05:27:50;6.43;;;2.20;;
52972;SDS011;38837;48.916;2.336;2024-01-25T05:29:52;4.65;;;1.92;;
52972;SDS011;38837;48.916;2.336;2024-01-25T05:31:54;6.38;;;2.17;;
52972;SDS011;38837;48.916;2.336;2024-01-25T05:33:57;6.72;;;2.60;;
52972;SDS011;38837;48.916;2.336;2024-01-25T05:36:02;7.10;;;1.98;;
52972;SDS011;38837;48.916;2.336;2024-01-25T05:38:04;5.97;;;2.33;;
52972;SDS011;38837;48.916;2.336;2024-01-25T05:40:06;7.90;;;2.40;;
52972;SDS011;38837;48.916;2.336;2024-01-25T05:42:09;7.50;;;2.35;;
52972;SDS011;38837;48.916;2.336;2024-01-25T05:44:12;8.00;;;2.08;;
52972;SDS011;38837;48.916;2.336;2024-01-25T05:46:14;7.10;;;2.30;;
52972;SDS011;38837;48.916;2.336;2024-01-25T05:48:16;7.63;;;2.42;;
52972;SDS011;38837;48.916;2.336;2024-01-25T05:50:22;7.07;;;2.13;;
52972;SDS011;38837;48.916;2.336;2024-01-25T05:52:24;4.68;;;2.13;;
52972;SDS011;38837;48.916;2.336;2024-01-25T05:54:27;7.38;;;2.70;;
52972;SDS011;38837;48.916;2.336;2024-01-25T05:56:29;8.23;;;2.70;;
52972;SDS011;38837;48.916;2.336;2024-01-25T05:58:31;4.22;;;1.90;;
52972;SDS011;38837;48.916;2.336;2024-01-25T06:00:33;6.75;;;2.40;;
52972;SDS011;38837;48.916;2.336;2024-01-25T06:02:35;5.40;;;2.00;;
52972;SDS011;38837;48.916;2.336;2024-01-25T06:04:37;6.20;;;2.30;;
52972;SDS011;38837;48.916;2.336;2024-01-25T06:06:39;6.25;;;2.38;;
52972;SDS011;38837;48.916;2.336;2024-01-25T06:08:41;6.05;;;2.20;;
52972;SDS011;38837;48.916;2.336;2024-01-25T06:10:52;8.40;;;2.42;;
52972;SDS011;38837;48.916;2.336;2024-01-25T06:12:54;6.55;;;2.53;;
52972;SDS011;38837;48.916;2.336;2024-01-25T06:14:56;5.50;;;2.10;;
52972;SDS011;38837;48.916;2.336;2024-01-25T06:16:57;9.23;;;2.50;;
52972;SDS011;38837;48.916;2.336;2024-01-25T06:18:59;4.35;;;2.15;;
52972;SDS011;38837;48.916;2.336;2024-01-25T06:21:02;4.60;;;1.98;;
52972;SDS011;38837;48.916;2.336;2024-01-25T06:23:04;7.28;;;2.65;;
52972;SDS011;38837;48.916;2.336;2024-01-25T06:25:06;8.20;;;2.67;;
52972;SDS011;38837;48.916;2.336;2024-01-25T06:27:09;5.70;;;2.43;;
52972;SDS011;38837;48.916;2.336;2024-01-25T06:29:11;3.17;;;1.83;;
52972;SDS011;38837;48.916;2.336;2024-01-25T06:31:14;5.57;;;2.05;;
52972;SDS011;38837;48.916;2.336;2024-01-25T06:33:16;6.25;;;2.00;;
52972;SDS011;38837;48.916;2.336;2024-01-25T06:35:18;4.85;;;2.55;;
52972;SDS011;38837;48.916;2.336;2024-01-25T06:37:21;5.55;;;2.00;;
52972;SDS011;38837;48.916;2.336;2024-01-25T06:39:23;7.68;;;2.47;;
52972;SDS011;38837;48.916;2.336;2024-01-25T06:41:25;4.47;;;2.13;;
52972;SDS011;38837;48.916;2.336;2024-01-25T06:43:27;4.57;;;2.10;;
52972;SDS011;38837;48.916;2.336;2024-01-25T06:45:29;6.75;;;2.63;;
52972;SDS011;38837;48.916;2.336;2024-01-25T06:47:31;3.80;;;1.98;;
52972;SDS011;38837;48.916;2.336;2024-01-25T06:49:33;5.93;;;2.50;;
52972;SDS011;38837;48.916;2.336;2024-01-25T06:51:35;6.22;;;2.40;;
52972;SDS011;38837;48.916;2.336;2024-01-25T06:53:37;4.22;;;2.00;;
52972;SDS011;38837;48.916;2.336;2024-01-25T06:55:40;3.67;;;2.10;;
52972;SDS011;38837;48.916;2.336;2024-01-25T06:57:42;3.03;;;1.85;;
52972;SDS011;38837;48.916;2.336;2024-01-25T06:59:46;5.10;;;2.00;;
52972;SDS011;38837;48.916;2.336;2024-01-25T07:01:48;3.72;;;1.85;;
52972;SDS011;38837;48.916;2.336;2024-01-25T07:03:50;3.72;;;1.75;;
52972;SDS011;38837;48.916;2.336;2024-01-25T07:05:54;3.83;;;2.08;;
52972;SDS011;38837;48.916;2.336;2024-01-25T07:07:56;4.68;;;2.00;;
52972;SDS011;38837;48.916;2.336;2024-01-25T07:09:58;3.75;;;2.30;;
52972;SDS011;38837;48.916;2.336;2024-01-25T07:12:00;3.50;;;2.08;;
52972;SDS011;38837;48.916;2.336;2024-01-25T07:14:02;3.80;;;2.10;;
52972;SDS011;38837;48.916;2.336;2024-01-25T07:16:04;4.97;;;2.50;;
52972;SDS011;38837;48.916;2.336;2024-01-25T07:18:09;4.47;;;2.33;;
52972;SDS011;38837;48.916;2.336;2024-01-25T07:20:12;5.65;;;2.60;;
52972;SDS011;38837;48.916;2.336;2024-01-25T07:22:15;5.80;;;2.30;;
52972;SDS011;38837;48.916;2.336;2024-01-25T07:24:20;4.60;;;2.20;;
52972;SDS011;38837;48.916;2.336;2024-01-25T07:26:21;5.72;;;2.17;;
52972;SDS011;38837;48.916;2.336;2024-01-25T07:28:24;7.30;;;2.30;;
52972;SDS011;38837;48.916;2.336;2024-01-25T07:30:26;3.85;;;2.22;;
52972;SDS011;38837;48.916;2.336;2024-01-25T07:32:28;3.97;;;1.98;;
52972;SDS011;38837;48.916;2.336;2024-01-25T07:34:30;3.75;;;2.00;;
52972;SDS011;38837;48.916;2.336;2024-01-25T07:36:32;3.55;;;2.30;;
52972;SDS011;38837;48.916;2.336;2024-01-25T07:38:34;4.22;;;2.28;;
52972;SDS011;38837;48.916;2.336;2024-01-25T07:40:36;5.20;;;2.60;;
52972;SDS011;38837;48.916;2.336;2024-01-25T07:42:41;4.35;;;2.50;;
52972;SDS011;38837;48.916;2.336;2024-01-25T07:44:43;3.95;;;2.28;;
52972;SDS011;38837;48.916;2.336;2024-01-25T07:46:45;5.65;;;2.38;;
52972;SDS011;38837;48.916;2.336;2024-01-25T07:48:48;4.50;;;2.58;;
52972;SDS011;38837;48.916;2.336;2024-01-25T07:50:50;5.90;;;2.70;;
52972;SDS011;38837;48.916;2.336;2024-01-25T07:52:54;4.35;;;2.42;;
52972;SDS011;38837;48.916;2.336;2024-01-25T07:54:56;4.07;;;2.30;;
52972;SDS011;38837;48.916;2.336;2024-01-25T07:56:58;5.60;;;2.58;;
52972;SDS011;38837;48.916;2.336;2024-01-25T07:58:59;4.30;;;2.47;;
52972;SDS011;38837;48.916;2.336;2024-01-25T08:01:02;5.70;;;2.42;;
52972;SDS011;38837;48.916;2.336;2024-01-25T08:03:06;4.70;;;2.50;;
52972;SDS011;38837;48.916;2.336;2024-01-25T08:05:08;5.05;;;2.78;;
52972;SDS011;38837;48.916;2.336;2024-01-25T08:07:11;4.15;;;2.25;;
52972;SDS011;38837;48.916;2.336;2024-01-25T08:09:13;5.10;;;2.53;;
52972;SDS011;38837;48.916;2.336;2024-01-25T08:11:15;4.13;;;2.42;;
52972;SDS011;38837;48.916;2.336;2024-01-25T08:13:19;3.53;;;2.10;;
52972;SDS011;38837;48.916;2.336;2024-01-25T08:15:22;5.47;;;2.53;;
52972;SDS011;38837;48.916;2.336;2024-01-25T08:17:24;5.38;;;2.88;;
52972;SDS011;38837;48.916;2.336;2024-01-25T08:19:26;3.75;;;2.15;;
52972;SDS011;38837;48.916;2.336;2024-01-25T08:21:28;5.82;;;2.65;;
52972;SDS011;38837;48.916;2.336;2024-01-25T08:23:30;3.22;;;2.40;;
52972;SDS011;38837;48.916;2.336;2024-01-25T08:25:32;5.80;;;2.28;;
52972;SDS011;38837;48.916;2.336;2024-01-25T08:27:34;4.72;;;2.70;;
52972;SDS011;38837;48.916;2.336;2024-01-25T08:29:36;6.82;;;2.70;;
52972;SDS011;38837;48.916;2.336;2024-01-25T08:31:38;5.28;;;2.70;;
52972;SDS011;38837;48.916;2.336;2024-01-25T08:33:40;6.53;;;2.50;;
52972;SDS011;38837;48.916;2.336;2024-01-25T08:35:49;5.28;;;2.33;;
52972;SDS011;38837;48.916;2.336;2024-01-25T08:37:51;5.43;;;2.92;;
52972;SDS011;38837;48.916;2.336;2024-01-25T08:39:53;4.85;;;2.75;;
52972;SDS011;38837;48.916;2.336;2024-01-25T08:41:55;8.40;;;3.03;;
52972;SDS011;38837;48.916;2.336;2024-01-25T08:44:01;10.00;;;3.55;;
52972;SDS011;38837;48.916;2.336;2024-01-25T08:46:03;6.63;;;3.47;;
52972;SDS011;38837;48.916;2.336;2024-01-25T08:48:06;7.15;;;3.15;;
52972;SDS011;38837;48.916;2.336;2024-01-25T08:50:10;7.95;;;3.33;;
52972;SDS011;38837;48.916;2.336;2024-01-25T08:52:13;6.50;;;3.53;;
52972;SDS011;38837;48.916;2.336;2024-01-25T08:54:16;8.25;;;2.88;;
52972;SDS011;38837;48.916;2.336;2024-01-25T08:56:18;7.60;;;3.00;;
52972;SDS011;38837;48.916;2.336;2024-01-25T08:58:21;7.45;;;3.25;;
52972;SDS011;38837;48.916;2.336;2024-01-25T09:00:23;6.22;;;2.85;;
52972;SDS011;38837;48.916;2.336;2024-01-25T09:02:25;6.90;;;2.67;;
52972;SDS011;38837;48.916;2.336;2024-01-25T09:04:29;7.60;;;3.00;;
52972;SDS011;38837;48.916;2.336;2024-01-25T09:06:31;7.68;;;3.15;;
52972;SDS011;38837;48.916;2.336;2024-01-25T09:08:33;4.18;;;2.60;;
52972;SDS011;38837;48.916;2.336;2024-01-25T09:10:35;5.53;;;2.47;;
52972;SDS011;38837;48.916;2.336;2024-01-25T09:12:37;10.00;;;2.63;;
52972;SDS011;38837;48.916;2.336;2024-01-25T09:14:40;5.05;;;2.35;;
52972;SDS011;38837;48.916;2.336;2024-01-25T09:16:42;3.03;;;2.00;;
52972;SDS011;38837;48.916;2.336;2024-01-25T09:18:45;8.57;;;2.88;;
52972;SDS011;38837;48.916;2.336;2024-01-25T09:20:47;5.97;;;2.47;;
52972;SDS011;38837;48.916;2.336;2024-01-25T09:22:50;4.93;;;2.60;;
52972;SDS011;38837;48.916;2.336;2024-01-25T09:24:54;5.50;;;2.40;;
52972;SDS011;38837;48.916;2.336;2024-01-25T09:26:56;5.25;;;2.38;;
52972;SDS011;38837;48.916;2.336;2024-01-25T09:29:01;3.95;;;2.20;;
52972;SDS011;38837;48.916;2.336;2024-01-25T09:31:03;5.95;;;2.78;;
52972;SDS011;38837;48.916;2.336;2024-01-25T09:33:06;8.48;;;2.95;;
52972;SDS011;38837;48.916;2.336;2024-01-25T09:35:08;5.78;;;2.38;;
52972;SDS011;38837;48.916;2.336;2024-01-25T09:37:11;5.53;;;2.08;;
52972;SDS011;38837;48.916;2.336;2024-01-25T09:39:13;5.65;;;2.55;;
52972;SDS011;38837;48.916;2.336;2024-01-25T09:41:15;5.97;;;2.35;;
52972;SDS011;38837;48.916;2.336;2024-01-25T09:43:18;5.68;;;2.40;;
52972;SDS011;38837;48.916;2.336;2024-01-25T09:45:21;7.18;;;2.30;;
52972;SDS011;38837;48.916;2.336;2024-01-25T09:47:25;7.68;;;2.53;;
52972;SDS011;38837;48.916;2.336;2024-01-25T09:49:27;6.15;;;2.25;;
52972;SDS011;38837;48.916;2.336;2024-01-25T09:51:47;8.00;;;2.55;;
52972;SDS011;38837;48.916;2.336;2024-01-25T09:53:52;9.52;;;2.50;;
52972;SDS011;38837;48.916;2.336;2024-01-25T09:55:57;5.45;;;2.13;;
52972;SDS011;38837;48.916;2.336;2024-01-25T09:58:06;9.68;;;2.15;;
52972;SDS011;38837;48.916;2.336;2024-01-25T10:00:10;5.60;;;2.50;;
52972;SDS011;38837;48.916;2.336;2024-01-25T10:02:13;8.05;;;2.47;;
52972;SDS011;38837;48.916;2.336;2024-01-25T10:04:15;6.70;;;2.30;;
52972;SDS011;38837;48.916;2.336;2024-01-25T10:06:20;5.72;;;2.33;;
52972;SDS011;38837;48.916;2.336;2024-01-25T10:08:23;5.10;;;2.20;;
52972;SDS011;38837;48.916;2.336;2024-01-25T10:10:25;8.05;;;2.40;;
52972;SDS011;38837;48.916;2.336;2024-01-25T10:12:27;7.07;;;2.80;;
52972;SDS011;38837;48.916;2.336;2024-01-25T10:14:29;9.93;;;2.80;;
52972;SDS011;38837;48.916;2.336;2024-01-25T10:16:31;6.68;;;2.20;;
52972;SDS011;38837;48.916;2.336;2024-01-25T10:18:36;11.18;;;2.95;;
52972;SDS011;38837;48.916;2.336;2024-01-25T10:20:39;8.80;;;2.60;;
52972;SDS011;38837;48.916;2.336;2024-01-25T10:24:45;8.18;;;2.70;;
52972;SDS011;38837;48.916;2.336;2024-01-25T10:26:51;9.77;;;3.28;;
52972;SDS011;38837;48.916;2.336;2024-01-25T10:28:53;7.53;;;2.83;;
52972;SDS011;38837;48.916;2.336;2024-01-25T10:31:02;15.57;;;3.85;;
52972;SDS011;38837;48.916;2.336;2024-01-25T10:33:06;16.40;;;4.25;;
52972;SDS011;38837;48.916;2.336;2024-01-25T10:35:10;10.77;;;3.70;;
52972;SDS011;38837;48.916;2.336;2024-01-25T10:37:14;8.50;;;3.63;;
52972;SDS011;38837;48.916;2.336;2024-01-25T10:39:17;10.75;;;3.45;;
52972;SDS011;38837;48.916;2.336;2024-01-25T10:41:19;11.43;;;3.35;;
52972;SDS011;38837;48.916;2.336;2024-01-25T10:43:22;13.85;;;3.55;;
52972;SDS011;38837;48.916;2.336;2024-01-25T10:45:26;7.53;;;3.40;;
52972;SDS011;38837;48.916;2.336;2024-01-25T10:47:28;9.68;;;3.53;;
52972;SDS011;38837;48.916;2.336;2024-01-25T10:49:35;9.88;;;3.40;;
52972;SDS011;38837;48.916;2.336;2024-01-25T10:51:38;9.77;;;3.53;;
52972;SDS011;38837;48.916;2.336;2024-01-25T10:53:42;13.68;;;3.47;;
52972;SDS011;38837;48.916;2.336;2024-01-25T10:55:44;13.13;;;3.53;;
52972;SDS011;38837;48.916;2.336;2024-01-25T10:57:47;15.18;;;3.53;;
52972;SDS011;38837;48.916;2.336;2024-01-25T10:59:49;18.50;;;3.42;;
52972;SDS011;38837;48.916;2.336;2024-01-25T11:01:53;9.25;;;3.05;;
52972;SDS011;38837;48.916;2.336;2024-01-25T11:03:56;12.02;;;3.30;;
52972;SDS011;38837;48.916;2.336;2024-01-25T11:06:08;9.50;;;3.28;;
52972;SDS011;38837;48.916;2.336;2024-01-25T11:08:18;10.63;;;2.95;;
52972;SDS011;38837;48.916;2.336;2024-01-25T11:10:21;12.82;;;3.42;;
52972;SDS011;38837;48.916;2.336;2024-01-25T11:12:25;10.98;;;2.70;;
52972;SDS011;38837;48.916;2.336;2024-01-25T11:14:27;13.45;;;3.42;;
52972;SDS011;38837;48.916;2.336;2024-01-25T11:16:31;9.60;;;3.70;;
52972;SDS011;38837;48.916;2.336;2024-01-25T11:18:46;10.02;;;2.70;;
52972;SDS011;38837;48.916;2.336;2024-01-25T11:20:52;8.57;;;2.80;;
52972;SDS011;38837;48.916;2.336;2024-01-25T11:22:55;6.90;;;2.83;;
52972;SDS011;38837;48.916;2.336;2024-01-25T11:24:59;11.05;;;3.50;;
52972;SDS011;38837;48.916;2.336;2024-01-25T11:27:11;5.90;;;3.20;;
52972;SDS011;38837;48.916;2.336;2024-01-25T11:29:16;15.93;;;3.75;;
52972;SDS011;38837;48.916;2.336;2024-01-25T11:31:23;11.13;;;3.30;;
52972;SDS011;38837;48.916;2.336;2024-01-25T11:33:25;8.63;;;2.70;;
52972;SDS011;38837;48.916;2.336;2024-01-25T11:35:27;10.68;;;3.30;;
52972;SDS011;38837;48.916;2.336;2024-01-25T11:37:30;10.45;;;2.78;;
52972;SDS011;38837;48.916;2.336;2024-01-25T11:39:32;18.70;;;3.83;;
52972;SDS011;38837;48.916;2.336;2024-01-25T11:41:34;18.75;;;3.42;;
52972;SDS011;38837;48.916;2.336;2024-01-25T11:43:37;8.50;;;3.42;;
52972;SDS011;38837;48.916;2.336;2024-01-25T11:45:39;8.50;;;3.15;;
52972;SDS011;38837;48.916;2.336;2024-01-25T11:47:45;9.25;;;3.15;;
52972;SDS011;38837;48.916;2.336;2024-01-25T11:49:47;8.60;;;2.83;;
52972;SDS011;38837;48.916;2.336;2024-01-25T11:51:49;15.32;;;3.33;;
52972;SDS011;38837;48.916;2.336;2024-01-25T11:53:51;14.95;;;3.38;;
52972;SDS011;38837;48.916;2.336;2024-01-25T11:55:53;6.70;;;3.10;;
52972;SDS011;38837;48.916;2.336;2024-01-25T11:57:59;10.60;;;4.03;;
52972;SDS011;38837;48.916;2.336;2024-01-25T12:00:02;10.43;;;3.47;;
52972;SDS011;38837;48.916;2.336;2024-01-25T12:02:05;8.50;;;3.20;;
52972;SDS011;38837;48.916;2.336;2024-01-25T12:04:08;11.20;;;3.40;;
52972;SDS011;38837;48.916;2.336;2024-01-25T12:06:11;8.63;;;3.38;;
52972;SDS011;38837;48.916;2.336;2024-01-25T12:08:14;11.00;;;3.88;;
52972;SDS011;38837;48.916;2.336;2024-01-25T12:10:16;12.32;;;3.70;;
52972;SDS011;38837;48.916;2.336;2024-01-25T12:12:22;17.73;;;4.65;;
52972;SDS011;38837;48.916;2.336;2024-01-25T12:14:24;12.05;;;4.70;;
52972;SDS011;38837;48.916;2.336;2024-01-25T12:16:26;8.43;;;3.50;;
52972;SDS011;38837;48.916;2.336;2024-01-25T12:18:28;8.45;;;3.80;;
52972;SDS011;38837;48.916;2.336;2024-01-25T12:20:31;7.63;;;3.58;;